Home   Weather   USA   Daphne   Past weeks
Flag for USA

Past Weather in Daphne, Alabama, USA — Yesterday and Last 2 Weeks

Currently: 61 °F. Fog. (Weather station: Mobile Downtown Airport, USA). See more current weather

Past Weather in Daphne — Graph

°F

Daphne Temperature Yesterday

Maximum temperature yesterday: 78 °F (at 11:31 am)
Minimum temperature yesterday: 62 °F (at 12:53 am)
Average temperature yesterday: 66 °F

High & Low Weather Summary for the Past Weeks

 TemperatureHumidityPressure
High78 °F (Jan 19, 1:53 pm)100% (Jan 17, 11:53 pm)30.45 "Hg (Jan 17, 11:53 pm)
Low32 °F (Jan 27, 6:53 am)19% (Jan 19, 1:53 pm)29.74 "Hg (Jan 25, 12:19 am)
Average57 °F76%30.10 "Hg
* Reported Jan 16 1:53 am — Jan 31 1:24 am, Daphne. Weather by CustomWeather, © 2023

Note: Actual official high and low records may vary slightly from our data, if they occured in-between our weather recording intervals... More about our weather records

Daphne Weather History for the Previous 24 Hours

Scroll right to see more
 ConditionsComfort  
Time TempWeatherWind HumidityBarometerVisibility
1:24 am
Tue, Jan 31
62 °FFog.No wind93%30.16 "Hg0 mi
12:53 am63 °FFog.No wind93%30.16 "Hg1 mi
11:53 pm
Mon, Jan 30
62 °FFog.No wind100%30.17 "Hg0 mi
11:37 pm62 °FFog.3 mph96%30.18 "Hg0 mi
11:04 pm65 °FFog.3 mph94%30.18 "Hg1 mi
10:53 pm65 °FFog.No wind94%30.18 "Hg0 mi
10:21 pm64 °FFog.No wind97%30.19 "Hg0 mi
9:53 pm64 °FFog.No wind97%30.19 "Hg1 mi
8:53 pm64 °FFog.3 mph94%30.17 "Hg0 mi
8:16 pm64 °FFog.No wind97%30.17 "Hg0 mi
7:53 pm64 °FFog.No wind94%30.17 "Hg2 mi
6:53 pm62 °FLow clouds.3 mph93%30.15 "Hg7 mi
4:53 pm62 °FFog.7 mph96%30.14 "Hg1 mi
3:53 pm66 °FPartly sunny.8 mph87%30.13 "Hg10 mi
2:53 pm65 °FCloudy.5 mph87%30.11 "Hg10 mi
1:53 pm65 °FOvercast.3 mph87%30.11 "Hg10 mi
12:53 pm68 °FMostly cloudy.5 mph82%30.12 "Hg10 mi
12:01 pm69 °FBroken clouds.5 mph79%30.15 "Hg10 mi
11:31 am78 °FMostly cloudy.6 mph69%30.16 "Hg10 mi
11:00 am75 °FPartly sunny.N/A79%30.18 "Hg10 mi
9:53 am72 °FPartly sunny.9 mph84%30.18 "Hg10 mi
8:53 am70 °FMostly cloudy.3 mph90%30.17 "Hg10 mi
7:53 am68 °FMostly cloudy.5 mph93%30.15 "Hg9 mi
7:38 am68 °FMore clouds than sun.No wind96%30.14 "Hg9 mi
7:18 am68 °FMostly cloudy.7 mph96%30.14 "Hg7 mi
6:53 am69 °FLow clouds.6 mph93%30.13 "Hg7 mi
5:53 am69 °FLow clouds.6 mph96%30.12 "Hg9 mi
4:53 am69 °FLow clouds.6 mph96%30.11 "Hg8 mi
3:53 am67 °FFog.5 mph97%30.09 "Hg3 mi
3:01 am64 °FFog.3 mph97%30.10 "Hg1 mi
Weather by CustomWeather, © 2023

See weather overview